Terminal Aerodrome Forecast
Issued by NWS

Home | Current Version | Previous Version | Text Only | Print | Product List | Glossary On
Versions: 1 2 3 4 5 6 7 8 9 10 11 12 13 14 15 16 17
643
FTUS41 KPBZ 190310 AAA
TAFLBE
TAF AMD
KLBE 190310Z 1903/1924 19003KT 3SM BR SKC
     FM191300 VRB03KT P6SM SKC
     FM191600 24008G16KT P6SM SKC=

USA.gov is the U.S. government's official web portal to all federal, state and local government web resources and services.